Mardan Weather



Mardan's Current Weather

Temprature 34o haze

haze

Rain: 0 %

Min Temprature34o
Max Temprature34o
Humidity38
Wind Speed5.1 m/h
Sun Rise05:05:24
Sun Set19:27:03
Current Time: 05-Jul-2020 19:09:43
Lat/Lon: 34.2, 72.05




Mardan's Geo Location



Mardan's Weather Forecast

Time Overall Temp Min Temp Max Temp Humidity Wind Speed Rain
05-Jul-2020 (Sun)
20:00:00 few clouds 33.830 33.650 33.830 35 5.29 m/h 0 %
23:00:00 few clouds 31.000 30.170 31.000 40 2.3 m/h 0 %
06-Jul-2020 (Mon)
02:00:00 clear sky 29.360 29.040 29.360 44 0.76 m/h 0 %
05:00:00 clear sky 28.470 28.430 28.470 38 1.55 m/h 0 %
08:00:00 few clouds 32.450 32.450 32.450 31 1.52 m/h 0 %
11:00:00 clear sky 37.340 37.340 37.340 24 2.17 m/h 0 %
14:00:00 clear sky 40.200 40.200 40.200 19 2.24 m/h 0 %
17:00:00 clear sky 40.850 40.850 40.850 15 1.38 m/h 0 %
20:00:00 scattered clouds 36.740 36.740 36.740 18 0.88 m/h 0 %
23:00:00 broken clouds 34.530 34.530 34.530 21 1.93 m/h 0 %
07-Jul-2020 (Tue)
02:00:00 scattered clouds 32.680 32.680 32.680 25 1.95 m/h 0 %
05:00:00 broken clouds 31.160 31.160 31.160 28 2.46 m/h 0 %
08:00:00 clear sky 35.850 35.850 35.850 23 1.04 m/h 0 %
11:00:00 clear sky 41.080 41.080 41.080 16 2.47 m/h 0 %
14:00:00 clear sky 43.380 43.380 43.380 13 2.55 m/h 0 %
17:00:00 clear sky 43.370 43.370 43.370 13 1.91 m/h 0 %
20:00:00 clear sky 38.710 38.710 38.710 17 0.64 m/h 0 %
23:00:00 clear sky 36.320 36.320 36.320 20 2.06 m/h 0 %
08-Jul-2020 (Wed)
02:00:00 clear sky 34.230 34.230 34.230 22 2.11 m/h 0 %
05:00:00 clear sky 32.430 32.430 32.430 25 1.76 m/h 0 %
08:00:00 clear sky 36.710 36.710 36.710 22 1.63 m/h 0 %
11:00:00 clear sky 41.120 41.120 41.120 24 2.77 m/h 0 %
14:00:00 clear sky 44.240 44.240 44.240 15 2.13 m/h 0 %
17:00:00 clear sky 44.720 44.720 44.720 13 2.43 m/h 0 %
20:00:00 few clouds 39.890 39.890 39.890 17 1.22 m/h 0 %
23:00:00 scattered clouds 37.750 37.750 37.750 19 2.97 m/h 0 %
09-Jul-2020 (Thu)
02:00:00 clear sky 35.210 35.210 35.210 24 2.92 m/h 0 %
05:00:00 scattered clouds 33.420 33.420 33.420 30 3.66 m/h 0 %
08:00:00 light rain 36.320 36.320 36.320 32 3.8 m/h 13 %
11:00:00 clear sky 40.510 40.510 40.510 31 4.04 m/h 0 %
14:00:00 clear sky 43.210 43.210 43.210 23 3.38 m/h 0 %
17:00:00 clear sky 44.240 44.240 44.240 18 4.55 m/h 0 %
20:00:00 few clouds 34.130 34.130 34.130 33 11.22 m/h 0 %
23:00:00 light rain 29.330 29.330 29.330 44 3.97 m/h 142 %
10-Jul-2020 (Fri)
02:00:00 light rain 29.310 29.310 29.310 46 0.56 m/h 27 %
05:00:00 light rain 27.770 27.770 27.770 54 2.74 m/h 55 %
08:00:00 light rain 31.950 31.950 31.950 39 0.64 m/h 23 %
11:00:00 light rain 36.260 36.260 36.260 34 1.93 m/h 21 %
14:00:00 clear sky 39.570 39.570 39.570 28 2.4 m/h 0 %
17:00:00 clear sky 40.890 40.890 40.890 22 1.45 m/h 0 %

Famous Cities (60)